sensor_id;sensor_type;location;lat;lon;timestamp;pressure;altitude;pressure_sealevel;temperature
20058;BMP180;10189;49.546;7.906;2023-05-19T00:02:18;98810.00;;;12.20
20058;BMP180;10189;49.546;7.906;2023-05-19T00:04:48;98804.00;;;12.20
20058;BMP180;10189;49.546;7.906;2023-05-19T00:07:17;98808.00;;;12.10
20058;BMP180;10189;49.546;7.906;2023-05-19T00:09:46;98807.00;;;12.00
20058;BMP180;10189;49.546;7.906;2023-05-19T00:12:12;98806.00;;;12.10
20058;BMP180;10189;49.546;7.906;2023-05-19T00:14:39;98804.00;;;12.10
20058;BMP180;10189;49.546;7.906;2023-05-19T00:17:05;98793.00;;;12.10
20058;BMP180;10189;49.546;7.906;2023-05-19T00:19:32;98800.00;;;12.10
20058;BMP180;10189;49.546;7.906;2023-05-19T00:21:58;98794.00;;;12.20
20058;BMP180;10189;49.546;7.906;2023-05-19T00:24:24;98800.00;;;12.10
20058;BMP180;10189;49.546;7.906;2023-05-19T00:26:50;98800.00;;;12.00
20058;BMP180;10189;49.546;7.906;2023-05-19T00:29:16;98782.00;;;12.00
20058;BMP180;10189;49.546;7.906;2023-05-19T00:31:43;98792.00;;;11.90
20058;BMP180;10189;49.546;7.906;2023-05-19T00:34:09;98785.00;;;11.90
20058;BMP180;10189;49.546;7.906;2023-05-19T00:36:35;98792.00;;;12.00
20058;BMP180;10189;49.546;7.906;2023-05-19T00:39:01;98784.00;;;11.90
20058;BMP180;10189;49.546;7.906;2023-05-19T00:41:28;98788.00;;;11.90
20058;BMP180;10189;49.546;7.906;2023-05-19T00:43:54;98792.00;;;11.90
20058;BMP180;10189;49.546;7.906;2023-05-19T00:46:20;98783.00;;;11.80
20058;BMP180;10189;49.546;7.906;2023-05-19T00:48:47;98776.00;;;11.80
20058;BMP180;10189;49.546;7.906;2023-05-19T00:51:14;98778.00;;;11.80
20058;BMP180;10189;49.546;7.906;2023-05-19T00:53:42;98771.00;;;11.80
20058;BMP180;10189;49.546;7.906;2023-05-19T00:56:13;98771.00;;;11.80
20058;BMP180;10189;49.546;7.906;2023-05-19T00:58:41;98758.00;;;11.70
20058;BMP180;10189;49.546;7.906;2023-05-19T01:01:07;98773.00;;;11.80
20058;BMP180;10189;49.546;7.906;2023-05-19T01:03:34;98753.00;;;11.80
20058;BMP180;10189;49.546;7.906;2023-05-19T01:06:02;98761.00;;;11.90
20058;BMP180;10189;49.546;7.906;2023-05-19T01:08:34;98754.00;;;11.80
20058;BMP180;10189;49.546;7.906;2023-05-19T01:11:00;98761.00;;;11.80
20058;BMP180;10189;49.546;7.906;2023-05-19T01:13:28;98752.00;;;11.70
20058;BMP180;10189;49.546;7.906;2023-05-19T01:33:04;98750.00;;;11.70
20058;BMP180;10189;49.546;7.906;2023-05-19T01:35:34;98742.00;;;11.70
20058;BMP180;10189;49.546;7.906;2023-05-19T01:38:02;98756.00;;;11.70
20058;BMP180;10189;49.546;7.906;2023-05-19T01:40:29;98759.00;;;11.60
20058;BMP180;10189;49.546;7.906;2023-05-19T01:43:00;98764.00;;;11.60
20058;BMP180;10189;49.546;7.906;2023-05-19T01:45:31;98762.00;;;11.70
20058;BMP180;10189;49.546;7.906;2023-05-19T01:48:02;98760.00;;;11.70
20058;BMP180;10189;49.546;7.906;2023-05-19T01:50:28;98758.00;;;11.70
20058;BMP180;10189;49.546;7.906;2023-05-19T01:52:55;98764.00;;;11.70
20058;BMP180;10189;49.546;7.906;2023-05-19T01:55:21;98762.00;;;11.70
20058;BMP180;10189;49.546;7.906;2023-05-19T02:00:51;98750.00;;;11.70
20058;BMP180;10189;49.546;7.906;2023-05-19T02:06:45;98767.00;;;11.60
20058;BMP180;10189;49.546;7.906;2023-05-19T02:09:38;98763.00;;;11.50
20058;BMP180;10189;49.546;7.906;2023-05-19T02:12:13;98772.00;;;11.50
20058;BMP180;10189;49.546;7.906;2023-05-19T02:17:38;98770.00;;;11.40
20058;BMP180;10189;49.546;7.906;2023-05-19T02:20:07;98763.00;;;11.40
20058;BMP180;10189;49.546;7.906;2023-05-19T02:22:36;98765.00;;;11.40
20058;BMP180;10189;49.546;7.906;2023-05-19T02:25:02;98770.00;;;11.50
20058;BMP180;10189;49.546;7.906;2023-05-19T02:27:33;98759.00;;;11.40
20058;BMP180;10189;49.546;7.906;2023-05-19T02:29:59;98758.00;;;11.40
20058;BMP180;10189;49.546;7.906;2023-05-19T02:32:24;98764.00;;;11.40
20058;BMP180;10189;49.546;7.906;2023-05-19T02:34:50;98760.00;;;11.30
20058;BMP180;10189;49.546;7.906;2023-05-19T02:37:17;98755.00;;;11.30
20058;BMP180;10189;49.546;7.906;2023-05-19T02:39:44;98754.00;;;11.40
20058;BMP180;10189;49.546;7.906;2023-05-19T02:42:10;98754.00;;;11.40
20058;BMP180;10189;49.546;7.906;2023-05-19T02:44:37;98753.00;;;11.30
20058;BMP180;10189;49.546;7.906;2023-05-19T02:47:03;98749.00;;;11.40
20058;BMP180;10189;49.546;7.906;2023-05-19T02:49:29;98750.00;;;11.30
20058;BMP180;10189;49.546;7.906;2023-05-19T02:52:04;98750.00;;;11.40
20058;BMP180;10189;49.546;7.906;2023-05-19T02:54:32;98746.00;;;11.30
20058;BMP180;10189;49.546;7.906;2023-05-19T02:57:01;98742.00;;;11.30
20058;BMP180;10189;49.546;7.906;2023-05-19T02:59:27;98736.00;;;11.20
20058;BMP180;10189;49.546;7.906;2023-05-19T03:02:00;98739.00;;;11.10
20058;BMP180;10189;49.546;7.906;2023-05-19T03:04:28;98737.00;;;11.20
20058;BMP180;10189;49.546;7.906;2023-05-19T03:06:55;98741.00;;;11.20
20058;BMP180;10189;49.546;7.906;2023-05-19T03:09:21;98733.00;;;11.20
20058;BMP180;10189;49.546;7.906;2023-05-19T03:11:47;98742.00;;;11.20
20058;BMP180;10189;49.546;7.906;2023-05-19T03:14:13;98738.00;;;11.20
20058;BMP180;10189;49.546;7.906;2023-05-19T03:16:40;98738.00;;;11.10
20058;BMP180;10189;49.546;7.906;2023-05-19T03:19:07;98746.00;;;11.10
20058;BMP180;10189;49.546;7.906;2023-05-19T03:21:34;98749.00;;;11.20
20058;BMP180;10189;49.546;7.906;2023-05-19T03:24:03;98749.00;;;11.20
20058;BMP180;10189;49.546;7.906;2023-05-19T03:26:29;98744.00;;;11.10
20058;BMP180;10189;49.546;7.906;2023-05-19T03:28:56;98745.00;;;11.10
20058;BMP180;10189;49.546;7.906;2023-05-19T03:31:22;98744.00;;;11.10
20058;BMP180;10189;49.546;7.906;2023-05-19T03:33:48;98748.00;;;11.10
20058;BMP180;10189;49.546;7.906;2023-05-19T03:36:13;98753.00;;;11.10
20058;BMP180;10189;49.546;7.906;2023-05-19T03:38:40;98751.00;;;11.10
20058;BMP180;10189;49.546;7.906;2023-05-19T03:41:06;98744.00;;;11.10
20058;BMP180;10189;49.546;7.906;2023-05-19T03:43:32;98743.00;;;11.00
20058;BMP180;10189;49.546;7.906;2023-05-19T03:46:01;98743.00;;;11.00
20058;BMP180;10189;49.546;7.906;2023-05-19T03:48:54;98745.00;;;11.00
20058;BMP180;10189;49.546;7.906;2023-05-19T03:51:30;98736.00;;;11.00
20058;BMP180;10189;49.546;7.906;2023-05-19T03:54:04;98741.00;;;11.10
20058;BMP180;10189;49.546;7.906;2023-05-19T03:56:30;98739.00;;;11.10
20058;BMP180;10189;49.546;7.906;2023-05-19T03:58:58;98743.00;;;11.10
20058;BMP180;10189;49.546;7.906;2023-05-19T04:01:24;98748.00;;;11.10
20058;BMP180;10189;49.546;7.906;2023-05-19T04:03:50;98748.00;;;11.10
20058;BMP180;10189;49.546;7.906;2023-05-19T04:06:15;98756.00;;;11.10
20058;BMP180;10189;49.546;7.906;2023-05-19T04:08:42;98752.00;;;11.10
20058;BMP180;10189;49.546;7.906;2023-05-19T04:11:09;98761.00;;;11.10
20058;BMP180;10189;49.546;7.906;2023-05-19T04:13:34;98760.00;;;11.10
20058;BMP180;10189;49.546;7.906;2023-05-19T04:16:00;98753.00;;;11.10
20058;BMP180;10189;49.546;7.906;2023-05-19T04:18:26;98759.00;;;11.10
20058;BMP180;10189;49.546;7.906;2023-05-19T04:20:52;98751.00;;;11.20
20058;BMP180;10189;49.546;7.906;2023-05-19T04:23:18;98756.00;;;11.20
20058;BMP180;10189;49.546;7.906;2023-05-19T04:25:44;98761.00;;;11.20
20058;BMP180;10189;49.546;7.906;2023-05-19T04:28:14;98763.00;;;11.20
20058;BMP180;10189;49.546;7.906;2023-05-19T04:30:40;98764.00;;;11.20
20058;BMP180;10189;49.546;7.906;2023-05-19T04:33:07;98757.00;;;11.30
20058;BMP180;10189;49.546;7.906;2023-05-19T04:35:36;98766.00;;;11.30
20058;BMP180;10189;49.546;7.906;2023-05-19T04:38:03;98749.00;;;11.30
20058;BMP180;10189;49.546;7.906;2023-05-19T04:40:31;98753.00;;;11.30
20058;BMP180;10189;49.546;7.906;2023-05-19T04:42:57;98763.00;;;11.40
20058;BMP180;10189;49.546;7.906;2023-05-19T04:45:24;98772.00;;;11.40
20058;BMP180;10189;49.546;7.906;2023-05-19T04:47:53;98764.00;;;11.40
20058;BMP180;10189;49.546;7.906;2023-05-19T04:50:23;98770.00;;;11.40
20058;BMP180;10189;49.546;7.906;2023-05-19T04:52:49;98769.00;;;11.60
20058;BMP180;10189;49.546;7.906;2023-05-19T04:55:15;98759.00;;;11.70
20058;BMP180;10189;49.546;7.906;2023-05-19T04:57:42;98778.00;;;11.70
20058;BMP180;10189;49.546;7.906;2023-05-19T05:00:09;98763.00;;;11.80
20058;BMP180;10189;49.546;7.906;2023-05-19T05:02:49;98768.00;;;11.80
20058;BMP180;10189;49.546;7.906;2023-05-19T05:05:17;98763.00;;;11.80
20058;BMP180;10189;49.546;7.906;2023-05-19T05:07:43;98758.00;;;11.90
20058;BMP180;10189;49.546;7.906;2023-05-19T05:10:10;98773.00;;;12.00
20058;BMP180;10189;49.546;7.906;2023-05-19T05:12:36;98757.00;;;12.10
20058;BMP180;10189;49.546;7.906;2023-05-19T05:15:03;98758.00;;;12.20
20058;BMP180;10189;49.546;7.906;2023-05-19T05:17:33;98759.00;;;12.30
20058;BMP180;10189;49.546;7.906;2023-05-19T05:20:02;98758.00;;;12.50
20058;BMP180;10189;49.546;7.906;2023-05-19T05:22:31;98750.00;;;12.40
20058;BMP180;10189;49.546;7.906;2023-05-19T05:24:58;98752.00;;;12.40
20058;BMP180;10189;49.546;7.906;2023-05-19T05:27:24;98751.00;;;12.40
20058;BMP180;10189;49.546;7.906;2023-05-19T05:29:52;98742.00;;;12.30
20058;BMP180;10189;49.546;7.906;2023-05-19T05:32:21;98755.00;;;12.40
20058;BMP180;10189;49.546;7.906;2023-05-19T05:34:47;98752.00;;;12.50
20058;BMP180;10189;49.546;7.906;2023-05-19T05:37:14;98755.00;;;12.20
20058;BMP180;10189;49.546;7.906;2023-05-19T05:39:40;98752.00;;;12.30
20058;BMP180;10189;49.546;7.906;2023-05-19T05:42:07;98745.00;;;12.30
20058;BMP180;10189;49.546;7.906;2023-05-19T05:44:35;98751.00;;;12.30
20058;BMP180;10189;49.546;7.906;2023-05-19T05:47:04;98754.00;;;12.30
20058;BMP180;10189;49.546;7.906;2023-05-19T05:49:30;98750.00;;;12.40
20058;BMP180;10189;49.546;7.906;2023-05-19T05:51:57;98751.00;;;12.50
20058;BMP180;10189;49.546;7.906;2023-05-19T05:54:23;98739.00;;;12.60
20058;BMP180;10189;49.546;7.906;2023-05-19T05:56:51;98746.00;;;12.70
20058;BMP180;10189;49.546;7.906;2023-05-19T05:59:18;98742.00;;;13.00
20058;BMP180;10189;49.546;7.906;2023-05-19T06:01:45;98744.00;;;13.00
20058;BMP180;10189;49.546;7.906;2023-05-19T06:04:11;98748.00;;;12.70
20058;BMP180;10189;49.546;7.906;2023-05-19T06:06:37;98746.00;;;13.00
20058;BMP180;10189;49.546;7.906;2023-05-19T06:09:04;98734.00;;;13.00
20058;BMP180;10189;49.546;7.906;2023-05-19T06:11:31;98745.00;;;13.10
20058;BMP180;10189;49.546;7.906;2023-05-19T06:13:58;98745.00;;;13.10
20058;BMP180;10189;49.546;7.906;2023-05-19T06:16:44;98747.00;;;13.10
20058;BMP180;10189;49.546;7.906;2023-05-19T06:19:13;98744.00;;;13.20
20058;BMP180;10189;49.546;7.906;2023-05-19T06:21:39;98745.00;;;13.30
20058;BMP180;10189;49.546;7.906;2023-05-19T06:24:07;98739.00;;;13.40
20058;BMP180;10189;49.546;7.906;2023-05-19T06:26:33;98745.00;;;13.40
20058;BMP180;10189;49.546;7.906;2023-05-19T06:29:00;98740.00;;;13.50
20058;BMP180;10189;49.546;7.906;2023-05-19T06:31:28;98746.00;;;13.60
20058;BMP180;10189;49.546;7.906;2023-05-19T06:33:57;98748.00;;;13.50
20058;BMP180;10189;49.546;7.906;2023-05-19T06:36:24;98740.00;;;13.70
20058;BMP180;10189;49.546;7.906;2023-05-19T06:38:52;98747.00;;;13.80
20058;BMP180;10189;49.546;7.906;2023-05-19T06:41:19;98746.00;;;13.50
20058;BMP180;10189;49.546;7.906;2023-05-19T06:43:46;98739.00;;;13.70
20058;BMP180;10189;49.546;7.906;2023-05-19T06:46:13;98742.00;;;13.70
20058;BMP180;10189;49.546;7.906;2023-05-19T06:48:39;98742.00;;;13.80
20058;BMP180;10189;49.546;7.906;2023-05-19T06:51:06;98735.00;;;14.00
20058;BMP180;10189;49.546;7.906;2023-05-19T06:53:33;98744.00;;;14.10
20058;BMP180;10189;49.546;7.906;2023-05-19T06:56:04;98729.00;;;14.10
20058;BMP180;10189;49.546;7.906;2023-05-19T06:58:32;98736.00;;;14.40
20058;BMP180;10189;49.546;7.906;2023-05-19T07:01:04;98734.00;;;14.50
20058;BMP180;10189;49.546;7.906;2023-05-19T07:03:35;98738.00;;;14.30
20058;BMP180;10189;49.546;7.906;2023-05-19T07:06:02;98732.00;;;14.30
20058;BMP180;10189;49.546;7.906;2023-05-19T07:08:29;98743.00;;;14.60
20058;BMP180;10189;49.546;7.906;2023-05-19T07:10:56;98730.00;;;14.90
20058;BMP180;10189;49.546;7.906;2023-05-19T07:13:22;98726.00;;;15.20
20058;BMP180;10189;49.546;7.906;2023-05-19T07:15:48;98718.00;;;15.40
20058;BMP180;10189;49.546;7.906;2023-05-19T07:18:16;98713.00;;;15.70
20058;BMP180;10189;49.546;7.906;2023-05-19T07:20:42;98706.00;;;15.90
20058;BMP180;10189;49.546;7.906;2023-05-19T07:23:07;98710.00;;;15.90
20058;BMP180;10189;49.546;7.906;2023-05-19T07:25:34;98716.00;;;15.50
20058;BMP180;10189;49.546;7.906;2023-05-19T07:28:00;98718.00;;;15.40
20058;BMP180;10189;49.546;7.906;2023-05-19T07:30:27;98706.00;;;15.50
20058;BMP180;10189;49.546;7.906;2023-05-19T07:32:53;98714.00;;;15.70
20058;BMP180;10189;49.546;7.906;2023-05-19T07:35:19;98692.00;;;15.80
20058;BMP180;10189;49.546;7.906;2023-05-19T07:37:48;98712.00;;;15.80
20058;BMP180;10189;49.546;7.906;2023-05-19T07:40:14;98708.00;;;16.00
20058;BMP180;10189;49.546;7.906;2023-05-19T07:42:40;98703.00;;;16.20
20058;BMP180;10189;49.546;7.906;2023-05-19T07:45:07;98711.00;;;16.20
20058;BMP180;10189;49.546;7.906;2023-05-19T07:47:33;98705.00;;;16.10
20058;BMP180;10189;49.546;7.906;2023-05-19T07:49:59;98707.00;;;16.20
20058;BMP180;10189;49.546;7.906;2023-05-19T07:52:24;98701.00;;;15.90
20058;BMP180;10189;49.546;7.906;2023-05-19T07:54:50;98707.00;;;16.00
20058;BMP180;10189;49.546;7.906;2023-05-19T07:57:16;98701.00;;;15.70
20058;BMP180;10189;49.546;7.906;2023-05-19T07:59:43;98713.00;;;15.90
20058;BMP180;10189;49.546;7.906;2023-05-19T08:02:10;98700.00;;;16.00
20058;BMP180;10189;49.546;7.906;2023-05-19T08:04:36;98708.00;;;16.00
20058;BMP180;10189;49.546;7.906;2023-05-19T08:07:02;98711.00;;;15.90
20058;BMP180;10189;49.546;7.906;2023-05-19T08:09:28;98702.00;;;15.90
20058;BMP180;10189;49.546;7.906;2023-05-19T08:11:54;98709.00;;;15.70
20058;BMP180;10189;49.546;7.906;2023-05-19T08:14:20;98700.00;;;16.00
20058;BMP180;10189;49.546;7.906;2023-05-19T08:16:48;98704.00;;;16.00
20058;BMP180;10189;49.546;7.906;2023-05-19T08:19:14;98699.00;;;16.10
20058;BMP180;10189;49.546;7.906;2023-05-19T08:21:40;98702.00;;;15.90
20058;BMP180;10189;49.546;7.906;2023-05-19T08:24:07;98698.00;;;16.20
20058;BMP180;10189;49.546;7.906;2023-05-19T08:26:34;98695.00;;;16.30
20058;BMP180;10189;49.546;7.906;2023-05-19T08:29:00;98687.00;;;16.60
20058;BMP180;10189;49.546;7.906;2023-05-19T08:31:26;98690.00;;;16.70
20058;BMP180;10189;49.546;7.906;2023-05-19T08:33:52;98683.00;;;16.90
20058;BMP180;10189;49.546;7.906;2023-05-19T08:36:18;98693.00;;;16.90
20058;BMP180;10189;49.546;7.906;2023-05-19T08:38:44;98677.00;;;17.30
20058;BMP180;10189;49.546;7.906;2023-05-19T08:41:10;98688.00;;;17.20
20058;BMP180;10189;49.546;7.906;2023-05-19T08:43:36;98693.00;;;17.00
20058;BMP180;10189;49.546;7.906;2023-05-19T08:46:03;98691.00;;;16.80
20058;BMP180;10189;49.546;7.906;2023-05-19T08:48:29;98678.00;;;16.90
20058;BMP180;10189;49.546;7.906;2023-05-19T08:53:39;98674.00;;;16.80
20058;BMP180;10189;49.546;7.906;2023-05-19T08:56:23;98667.00;;;16.90
20058;BMP180;10189;49.546;7.906;2023-05-19T08:58:50;98680.00;;;16.60
20058;BMP180;10189;49.546;7.906;2023-05-19T09:01:18;98678.00;;;16.90
20058;BMP180;10189;49.546;7.906;2023-05-19T09:03:45;98666.00;;;17.00
20058;BMP180;10189;49.546;7.906;2023-05-19T09:06:12;98672.00;;;17.00
20058;BMP180;10189;49.546;7.906;2023-05-19T09:08:40;98663.00;;;17.30
20058;BMP180;10189;49.546;7.906;2023-05-19T09:11:08;98653.00;;;17.60
20058;BMP180;10189;49.546;7.906;2023-05-19T09:13:34;98650.00;;;18.00
20058;BMP180;10189;49.546;7.906;2023-05-19T09:16:01;98646.00;;;18.00
20058;BMP180;10189;49.546;7.906;2023-05-19T09:18:28;98656.00;;;18.10
20058;BMP180;10189;49.546;7.906;2023-05-19T09:21:00;98641.00;;;17.60
20058;BMP180;10189;49.546;7.906;2023-05-19T09:23:31;98656.00;;;17.40
20058;BMP180;10189;49.546;7.906;2023-05-19T09:26:04;98649.00;;;17.50
20058;BMP180;10189;49.546;7.906;2023-05-19T09:28:35;98655.00;;;17.50
20058;BMP180;10189;49.546;7.906;2023-05-19T09:31:07;98641.00;;;17.40
20058;BMP180;10189;49.546;7.906;2023-05-19T09:33:38;98631.00;;;17.70
20058;BMP180;10189;49.546;7.906;2023-05-19T09:36:05;98626.00;;;17.70
20058;BMP180;10189;49.546;7.906;2023-05-19T09:38:34;98633.00;;;17.80
20058;BMP180;10189;49.546;7.906;2023-05-19T09:41:00;98626.00;;;17.90
20058;BMP180;10189;49.546;7.906;2023-05-19T09:43:31;98634.00;;;18.10
20058;BMP180;10189;49.546;7.906;2023-05-19T09:46:05;98628.00;;;18.10
20058;BMP180;10189;49.546;7.906;2023-05-19T09:48:33;98628.00;;;18.10
20058;BMP180;10189;49.546;7.906;2023-05-19T09:51:01;98630.00;;;18.30
20058;BMP180;10189;49.546;7.906;2023-05-19T09:53:29;98622.00;;;18.20
20058;BMP180;10189;49.546;7.906;2023-05-19T09:55:57;98630.00;;;18.40
20058;BMP180;10189;49.546;7.906;2023-05-19T09:58:30;98620.00;;;18.30
20058;BMP180;10189;49.546;7.906;2023-05-19T10:00:58;98625.00;;;18.30
20058;BMP180;10189;49.546;7.906;2023-05-19T10:03:25;98626.00;;;18.10
20058;BMP180;10189;49.546;7.906;2023-05-19T10:05:52;98620.00;;;18.30
20058;BMP180;10189;49.546;7.906;2023-05-19T10:08:20;98623.00;;;18.30
20058;BMP180;10189;49.546;7.906;2023-05-19T10:10:48;98614.00;;;18.50
20058;BMP180;10189;49.546;7.906;2023-05-19T10:13:15;98613.00;;;18.50
20058;BMP180;10189;49.546;7.906;2023-05-19T10:15:41;98600.00;;;18.70
20058;BMP180;10189;49.546;7.906;2023-05-19T10:18:11;98597.00;;;18.80
20058;BMP180;10189;49.546;7.906;2023-05-19T10:20:39;98611.00;;;19.20
20058;BMP180;10189;49.546;7.906;2023-05-19T10:23:05;98619.00;;;19.20
20058;BMP180;10189;49.546;7.906;2023-05-19T10:25:33;98597.00;;;18.90
20058;BMP180;10189;49.546;7.906;2023-05-19T10:28:15;98593.00;;;19.00
20058;BMP180;10189;49.546;7.906;2023-05-19T10:30:46;98600.00;;;19.00
20058;BMP180;10189;49.546;7.906;2023-05-19T10:33:16;98596.00;;;18.90
20058;BMP180;10189;49.546;7.906;2023-05-19T10:36:37;98597.00;;;19.40
20058;BMP180;10189;49.546;7.906;2023-05-19T10:39:10;98605.00;;;19.30
20058;BMP180;10189;49.546;7.906;2023-05-19T10:42:15;98607.00;;;19.00
20058;BMP180;10189;49.546;7.906;2023-05-19T10:47:29;98604.00;;;18.80
20058;BMP180;10189;49.546;7.906;2023-05-19T10:49:55;98592.00;;;19.00
20058;BMP180;10189;49.546;7.906;2023-05-19T10:52:24;98580.00;;;19.20
20058;BMP180;10189;49.546;7.906;2023-05-19T10:54:51;98590.00;;;18.90
20058;BMP180;10189;49.546;7.906;2023-05-19T10:57:25;98565.00;;;18.90
20058;BMP180;10189;49.546;7.906;2023-05-19T10:59:57;98598.00;;;19.10
20058;BMP180;10189;49.546;7.906;2023-05-19T11:02:42;98579.00;;;19.20
20058;BMP180;10189;49.546;7.906;2023-05-19T11:05:16;98583.00;;;19.60
20058;BMP180;10189;49.546;7.906;2023-05-19T11:07:55;98594.00;;;19.20
20058;BMP180;10189;49.546;7.906;2023-05-19T11:10:23;98584.00;;;18.90
20058;BMP180;10189;49.546;7.906;2023-05-19T11:12:50;98587.00;;;19.00
20058;BMP180;10189;49.546;7.906;2023-05-19T11:15:16;98583.00;;;19.40
20058;BMP180;10189;49.546;7.906;2023-05-19T11:17:47;98593.00;;;19.40
20058;BMP180;10189;49.546;7.906;2023-05-19T11:20:23;98594.00;;;19.30
20058;BMP180;10189;49.546;7.906;2023-05-19T11:23:06;98583.00;;;19.20
20058;BMP180;10189;49.546;7.906;2023-05-19T11:25:51;98582.00;;;19.50
20058;BMP180;10189;49.546;7.906;2023-05-19T11:28:22;98575.00;;;19.60
20058;BMP180;10189;49.546;7.906;2023-05-19T11:30:55;98574.00;;;19.90
20058;BMP180;10189;49.546;7.906;2023-05-19T11:33:22;98578.00;;;20.10
20058;BMP180;10189;49.546;7.906;2023-05-19T11:35:54;98580.00;;;19.40
20058;BMP180;10189;49.546;7.906;2023-05-19T11:38:22;98574.00;;;19.40
20058;BMP180;10189;49.546;7.906;2023-05-19T11:40:51;98566.00;;;19.50
20058;BMP180;10189;49.546;7.906;2023-05-19T11:43:17;98580.00;;;19.80
20058;BMP180;10189;49.546;7.906;2023-05-19T11:45:44;98571.00;;;19.60
20058;BMP180;10189;49.546;7.906;2023-05-19T11:48:11;98554.00;;;19.70
20058;BMP180;10189;49.546;7.906;2023-05-19T11:50:40;98564.00;;;20.20
20058;BMP180;10189;49.546;7.906;2023-05-19T11:53:10;98545.00;;;20.60
20058;BMP180;10189;49.546;7.906;2023-05-19T11:55:44;98550.00;;;20.60
20058;BMP180;10189;49.546;7.906;2023-05-19T11:58:11;98553.00;;;20.10
20058;BMP180;10189;49.546;7.906;2023-05-19T12:00:42;98552.00;;;20.40
20058;BMP180;10189;49.546;7.906;2023-05-19T12:03:10;98549.00;;;20.70
20058;BMP180;10189;49.546;7.906;2023-05-19T12:05:43;98559.00;;;20.40
20058;BMP180;10189;49.546;7.906;2023-05-19T12:08:12;98557.00;;;20.80
20058;BMP180;10189;49.546;7.906;2023-05-19T12:10:39;98558.00;;;21.10
20058;BMP180;10189;49.546;7.906;2023-05-19T12:13:05;98568.00;;;21.10
20058;BMP180;10189;49.546;7.906;2023-05-19T12:15:33;98547.00;;;21.40
20058;BMP180;10189;49.546;7.906;2023-05-19T12:18:01;98552.00;;;21.50
20058;BMP180;10189;49.546;7.906;2023-05-19T12:20:29;98548.00;;;21.20
20058;BMP180;10189;49.546;7.906;2023-05-19T12:23:01;98551.00;;;20.80
20058;BMP180;10189;49.546;7.906;2023-05-19T12:25:28;98545.00;;;20.80
20058;BMP180;10189;49.546;7.906;2023-05-19T12:27:59;98547.00;;;21.00
20058;BMP180;10189;49.546;7.906;2023-05-19T12:30:28;98531.00;;;20.70
20058;BMP180;10189;49.546;7.906;2023-05-19T12:32:55;98534.00;;;20.40
20058;BMP180;10189;49.546;7.906;2023-05-19T12:35:28;98529.00;;;20.50
20058;BMP180;10189;49.546;7.906;2023-05-19T12:37:55;98527.00;;;20.40
20058;BMP180;10189;49.546;7.906;2023-05-19T12:40:21;98531.00;;;20.30
20058;BMP180;10189;49.546;7.906;2023-05-19T12:42:48;98529.00;;;20.00
20058;BMP180;10189;49.546;7.906;2023-05-19T12:45:20;98522.00;;;20.50
20058;BMP180;10189;49.546;7.906;2023-05-19T12:47:49;98534.00;;;20.80
20058;BMP180;10189;49.546;7.906;2023-05-19T12:50:15;98516.00;;;20.50
20058;BMP180;10189;49.546;7.906;2023-05-19T12:52:47;98521.00;;;20.50
20058;BMP180;10189;49.546;7.906;2023-05-19T12:55:14;98525.00;;;20.40
20058;BMP180;10189;49.546;7.906;2023-05-19T12:57:43;98526.00;;;20.50
20058;BMP180;10189;49.546;7.906;2023-05-19T13:00:17;98535.00;;;20.70
20058;BMP180;10189;49.546;7.906;2023-05-19T13:03:07;98543.00;;;20.60
20058;BMP180;10189;49.546;7.906;2023-05-19T13:05:40;98540.00;;;20.70
20058;BMP180;10189;49.546;7.906;2023-05-19T13:08:12;98528.00;;;20.90
20058;BMP180;10189;49.546;7.906;2023-05-19T13:10:41;98524.00;;;21.10
20058;BMP180;10189;49.546;7.906;2023-05-19T13:13:08;98528.00;;;21.00
20058;BMP180;10189;49.546;7.906;2023-05-19T13:15:42;98530.00;;;21.40
20058;BMP180;10189;49.546;7.906;2023-05-19T13:18:10;98523.00;;;21.30
20058;BMP180;10189;49.546;7.906;2023-05-19T13:20:39;98537.00;;;20.80
20058;BMP180;10189;49.546;7.906;2023-05-19T13:23:08;98535.00;;;20.60
20058;BMP180;10189;49.546;7.906;2023-05-19T13:25:34;98526.00;;;20.70
20058;BMP180;10189;49.546;7.906;2023-05-19T13:28:02;98528.00;;;20.90
20058;BMP180;10189;49.546;7.906;2023-05-19T13:30:40;98504.00;;;21.10
20058;BMP180;10189;49.546;7.906;2023-05-19T13:33:07;98508.00;;;21.50
20058;BMP180;10189;49.546;7.906;2023-05-19T13:35:34;98518.00;;;21.80
20058;BMP180;10189;49.546;7.906;2023-05-19T13:38:07;98525.00;;;20.90
20058;BMP180;10189;49.546;7.906;2023-05-19T13:40:34;98510.00;;;21.00
20058;BMP180;10189;49.546;7.906;2023-05-19T13:43:02;98512.00;;;21.50
20058;BMP180;10189;49.546;7.906;2023-05-19T13:45:29;98493.00;;;21.20
20058;BMP180;10189;49.546;7.906;2023-05-19T13:47:55;98497.00;;;21.70
20058;BMP180;10189;49.546;7.906;2023-05-19T13:50:21;98506.00;;;22.00
20058;BMP180;10189;49.546;7.906;2023-05-19T13:52:47;98502.00;;;22.20
20058;BMP180;10189;49.546;7.906;2023-05-19T13:55:13;98501.00;;;22.00
20058;BMP180;10189;49.546;7.906;2023-05-19T13:57:39;98509.00;;;21.80
20058;BMP180;10189;49.546;7.906;2023-05-19T14:00:06;98502.00;;;22.00
20058;BMP180;10189;49.546;7.906;2023-05-19T14:02:38;98510.00;;;21.60
20058;BMP180;10189;49.546;7.906;2023-05-19T14:05:05;98501.00;;;21.20
20058;BMP180;10189;49.546;7.906;2023-05-19T14:07:31;98506.00;;;20.90
20058;BMP180;10189;49.546;7.906;2023-05-19T14:09:59;98518.00;;;20.80
20058;BMP180;10189;49.546;7.906;2023-05-19T14:12:25;98504.00;;;21.00
20058;BMP180;10189;49.546;7.906;2023-05-19T14:14:51;98509.00;;;20.60
20058;BMP180;10189;49.546;7.906;2023-05-19T14:17:17;98504.00;;;20.60
20058;BMP180;10189;49.546;7.906;2023-05-19T14:19:43;98497.00;;;20.70
20058;BMP180;10189;49.546;7.906;2023-05-19T14:22:09;98497.00;;;20.90
20058;BMP180;10189;49.546;7.906;2023-05-19T14:24:35;98501.00;;;20.30
20058;BMP180;10189;49.546;7.906;2023-05-19T14:27:00;98496.00;;;20.60
20058;BMP180;10189;49.546;7.906;2023-05-19T14:29:27;98497.00;;;20.30
20058;BMP180;10189;49.546;7.906;2023-05-19T14:31:53;98499.00;;;20.30
20058;BMP180;10189;49.546;7.906;2023-05-19T14:34:19;98496.00;;;20.10
20058;BMP180;10189;49.546;7.906;2023-05-19T14:36:46;98501.00;;;20.30
20058;BMP180;10189;49.546;7.906;2023-05-19T14:39:12;98499.00;;;20.20
20058;BMP180;10189;49.546;7.906;2023-05-19T14:41:38;98500.00;;;20.40
20058;BMP180;10189;49.546;7.906;2023-05-19T14:44:04;98499.00;;;20.30
20058;BMP180;10189;49.546;7.906;2023-05-19T14:46:31;98493.00;;;20.40
20058;BMP180;10189;49.546;7.906;2023-05-19T14:48:57;98499.00;;;20.20